sensor_id;sensor_type;location;lat;lon;timestamp;P1;durP1;ratioP1;P2;durP2;ratioP2
11222;SDS011;5668;52.012;8.724;2023-06-26T00:01:41;6.40;;;5.90;;
11222;SDS011;5668;52.012;8.724;2023-06-26T00:04:08;6.47;;;5.97;;
11222;SDS011;5668;52.012;8.724;2023-06-26T00:06:39;5.80;;;5.40;;
11222;SDS011;5668;52.012;8.724;2023-06-26T00:09:07;5.53;;;5.13;;
11222;SDS011;5668;52.012;8.724;2023-06-26T00:11:34;6.53;;;5.93;;
11222;SDS011;5668;52.012;8.724;2023-06-26T00:14:03;6.15;;;5.65;;
11222;SDS011;5668;52.012;8.724;2023-06-26T00:16:31;7.07;;;6.38;;
11222;SDS011;5668;52.012;8.724;2023-06-26T00:18:58;6.10;;;5.60;;
11222;SDS011;5668;52.012;8.724;2023-06-26T00:21:25;6.30;;;5.70;;
11222;SDS011;5668;52.012;8.724;2023-06-26T00:23:53;6.22;;;5.72;;
11222;SDS011;5668;52.012;8.724;2023-06-26T00:26:20;6.00;;;5.50;;
11222;SDS011;5668;52.012;8.724;2023-06-26T00:28:49;6.35;;;5.75;;
11222;SDS011;5668;52.012;8.724;2023-06-26T00:31:17;6.50;;;5.90;;
11222;SDS011;5668;52.012;8.724;2023-06-26T00:33:45;6.00;;;5.50;;
11222;SDS011;5668;52.012;8.724;2023-06-26T00:36:12;7.95;;;6.10;;
11222;SDS011;5668;52.012;8.724;2023-06-26T00:38:39;8.88;;;6.30;;
11222;SDS011;5668;52.012;8.724;2023-06-26T00:41:06;7.28;;;6.10;;
11222;SDS011;5668;52.012;8.724;2023-06-26T00:43:37;7.15;;;6.45;;
11222;SDS011;5668;52.012;8.724;2023-06-26T00:46:05;7.10;;;6.30;;
11222;SDS011;5668;52.012;8.724;2023-06-26T00:48:37;6.55;;;5.93;;
11222;SDS011;5668;52.012;8.724;2023-06-26T00:51:07;6.70;;;6.10;;
11222;SDS011;5668;52.012;8.724;2023-06-26T00:53:35;6.47;;;5.88;;
11222;SDS011;5668;52.012;8.724;2023-06-26T00:56:03;8.32;;;6.03;;
11222;SDS011;5668;52.012;8.724;2023-06-26T00:58:32;5.82;;;5.22;;
11222;SDS011;5668;52.012;8.724;2023-06-26T01:00:59;6.35;;;5.85;;
11222;SDS011;5668;52.012;8.724;2023-06-26T01:03:27;6.95;;;6.35;;
11222;SDS011;5668;52.012;8.724;2023-06-26T01:05:56;6.93;;;5.88;;
11222;SDS011;5668;52.012;8.724;2023-06-26T01:08:26;6.93;;;6.32;;
11222;SDS011;5668;52.012;8.724;2023-06-26T01:10:55;6.90;;;6.30;;
11222;SDS011;5668;52.012;8.724;2023-06-26T01:13:22;6.50;;;5.90;;
11222;SDS011;5668;52.012;8.724;2023-06-26T01:15:50;9.05;;;6.20;;
11222;SDS011;5668;52.012;8.724;2023-06-26T01:18:19;6.90;;;6.30;;
11222;SDS011;5668;52.012;8.724;2023-06-26T01:20:46;7.00;;;6.40;;
11222;SDS011;5668;52.012;8.724;2023-06-26T01:23:17;7.95;;;7.13;;
11222;SDS011;5668;52.012;8.724;2023-06-26T01:25:56;6.60;;;5.93;;
11222;SDS011;5668;52.012;8.724;2023-06-26T01:28:37;6.65;;;6.10;;
11222;SDS011;5668;52.012;8.724;2023-06-26T01:31:06;7.13;;;6.43;;
11222;SDS011;5668;52.012;8.724;2023-06-26T01:33:34;6.40;;;5.80;;
11222;SDS011;5668;52.012;8.724;2023-06-26T01:36:02;6.38;;;5.78;;
11222;SDS011;5668;52.012;8.724;2023-06-26T01:38:30;6.68;;;5.97;;
11222;SDS011;5668;52.012;8.724;2023-06-26T01:40:57;7.47;;;6.45;;
11222;SDS011;5668;52.012;8.724;2023-06-26T01:43:27;6.55;;;5.78;;
11222;SDS011;5668;52.012;8.724;2023-06-26T01:46:03;6.13;;;5.60;;
11222;SDS011;5668;52.012;8.724;2023-06-26T01:48:38;6.75;;;6.22;;
11222;SDS011;5668;52.012;8.724;2023-06-26T01:51:11;6.47;;;5.97;;
11222;SDS011;5668;52.012;8.724;2023-06-26T01:53:41;6.80;;;6.22;;
11222;SDS011;5668;52.012;8.724;2023-06-26T01:56:13;6.38;;;5.80;;
11222;SDS011;5668;52.012;8.724;2023-06-26T01:58:45;6.40;;;5.90;;
11222;SDS011;5668;52.012;8.724;2023-06-26T02:01:13;6.57;;;5.90;;
11222;SDS011;5668;52.012;8.724;2023-06-26T02:03:41;6.00;;;5.40;;
11222;SDS011;5668;52.012;8.724;2023-06-26T02:06:08;6.20;;;5.70;;
11222;SDS011;5668;52.012;8.724;2023-06-26T02:08:35;6.07;;;5.57;;
11222;SDS011;5668;52.012;8.724;2023-06-26T02:11:03;6.45;;;5.88;;
11222;SDS011;5668;52.012;8.724;2023-06-26T02:13:30;7.03;;;6.00;;
11222;SDS011;5668;52.012;8.724;2023-06-26T02:15:58;6.00;;;5.50;;
11222;SDS011;5668;52.012;8.724;2023-06-26T02:18:26;6.65;;;5.93;;
11222;SDS011;5668;52.012;8.724;2023-06-26T02:20:53;6.05;;;5.55;;
11222;SDS011;5668;52.012;8.724;2023-06-26T02:23:20;6.72;;;6.13;;
11222;SDS011;5668;52.012;8.724;2023-06-26T02:25:47;6.18;;;5.68;;
11222;SDS011;5668;52.012;8.724;2023-06-26T02:28:14;6.13;;;5.53;;
11222;SDS011;5668;52.012;8.724;2023-06-26T02:30:41;5.85;;;5.22;;
11222;SDS011;5668;52.012;8.724;2023-06-26T02:33:10;5.68;;;5.28;;
11222;SDS011;5668;52.012;8.724;2023-06-26T02:35:37;5.82;;;5.32;;
11222;SDS011;5668;52.012;8.724;2023-06-26T02:38:04;6.15;;;5.57;;
11222;SDS011;5668;52.012;8.724;2023-06-26T02:40:31;6.00;;;5.50;;
11222;SDS011;5668;52.012;8.724;2023-06-26T02:42:59;5.82;;;5.32;;
11222;SDS011;5668;52.012;8.724;2023-06-26T02:45:26;6.35;;;5.75;;
11222;SDS011;5668;52.012;8.724;2023-06-26T02:47:53;7.03;;;5.70;;
11222;SDS011;5668;52.012;8.724;2023-06-26T02:50:22;6.53;;;5.80;;
11222;SDS011;5668;52.012;8.724;2023-06-26T02:52:49;6.80;;;6.10;;
11222;SDS011;5668;52.012;8.724;2023-06-26T02:55:17;6.38;;;5.78;;
11222;SDS011;5668;52.012;8.724;2023-06-26T02:57:45;6.38;;;5.78;;
11222;SDS011;5668;52.012;8.724;2023-06-26T03:02:48;6.70;;;6.00;;
11222;SDS011;5668;52.012;8.724;2023-06-26T03:05:15;7.20;;;5.75;;
11222;SDS011;5668;52.012;8.724;2023-06-26T03:07:44;6.93;;;6.18;;
11222;SDS011;5668;52.012;8.724;2023-06-26T03:10:12;6.95;;;6.25;;
11222;SDS011;5668;52.012;8.724;2023-06-26T03:12:40;7.05;;;6.22;;
11222;SDS011;5668;52.012;8.724;2023-06-26T03:15:07;7.18;;;6.10;;
11222;SDS011;5668;52.012;8.724;2023-06-26T03:17:36;6.68;;;6.07;;
11222;SDS011;5668;52.012;8.724;2023-06-26T03:20:04;6.00;;;5.38;;
11222;SDS011;5668;52.012;8.724;2023-06-26T03:22:34;6.55;;;5.95;;
11222;SDS011;5668;52.012;8.724;2023-06-26T03:25:03;5.97;;;5.38;;
11222;SDS011;5668;52.012;8.724;2023-06-26T03:27:30;6.50;;;5.65;;
11222;SDS011;5668;52.012;8.724;2023-06-26T03:29:58;6.82;;;6.13;;
11222;SDS011;5668;52.012;8.724;2023-06-26T03:32:25;6.28;;;5.72;;
11222;SDS011;5668;52.012;8.724;2023-06-26T03:34:52;5.88;;;5.47;;
11222;SDS011;5668;52.012;8.724;2023-06-26T03:37:19;6.38;;;5.47;;
11222;SDS011;5668;52.012;8.724;2023-06-26T03:39:47;6.38;;;5.78;;
11222;SDS011;5668;52.012;8.724;2023-06-26T03:42:15;6.28;;;5.68;;
11222;SDS011;5668;52.012;8.724;2023-06-26T03:44:42;6.43;;;5.70;;
11222;SDS011;5668;52.012;8.724;2023-06-26T03:47:10;7.75;;;5.88;;
11222;SDS011;5668;52.012;8.724;2023-06-26T03:49:37;8.70;;;6.13;;
11222;SDS011;5668;52.012;8.724;2023-06-26T03:52:04;6.38;;;5.82;;
11222;SDS011;5668;52.012;8.724;2023-06-26T03:54:32;8.82;;;6.05;;
11222;SDS011;5668;52.012;8.724;2023-06-26T03:56:59;7.03;;;5.85;;
11222;SDS011;5668;52.012;8.724;2023-06-26T03:59:28;7.22;;;5.55;;
11222;SDS011;5668;52.012;8.724;2023-06-26T04:01:55;6.97;;;5.80;;
11222;SDS011;5668;52.012;8.724;2023-06-26T04:04:22;6.57;;;5.90;;
11222;SDS011;5668;52.012;8.724;2023-06-26T04:06:50;6.55;;;6.03;;
11222;SDS011;5668;52.012;8.724;2023-06-26T04:09:17;6.15;;;5.53;;
11222;SDS011;5668;52.012;8.724;2023-06-26T04:11:44;6.60;;;6.00;;
11222;SDS011;5668;52.012;8.724;2023-06-26T04:14:11;8.82;;;6.10;;
11222;SDS011;5668;52.012;8.724;2023-06-26T04:16:40;6.57;;;5.35;;
11222;SDS011;5668;52.012;8.724;2023-06-26T04:19:07;7.15;;;5.85;;
11222;SDS011;5668;52.012;8.724;2023-06-26T04:21:35;7.47;;;5.75;;
11222;SDS011;5668;52.012;8.724;2023-06-26T04:24:02;7.38;;;5.95;;
11222;SDS011;5668;52.012;8.724;2023-06-26T04:26:30;6.25;;;5.60;;
11222;SDS011;5668;52.012;8.724;2023-06-26T04:28:57;7.03;;;5.93;;
11222;SDS011;5668;52.012;8.724;2023-06-26T04:31:24;6.78;;;6.10;;
11222;SDS011;5668;52.012;8.724;2023-06-26T04:33:53;6.38;;;5.78;;
11222;SDS011;5668;52.012;8.724;2023-06-26T04:36:20;7.18;;;5.70;;
11222;SDS011;5668;52.012;8.724;2023-06-26T04:38:48;6.60;;;5.93;;
11222;SDS011;5668;52.012;8.724;2023-06-26T04:41:15;7.43;;;5.78;;
11222;SDS011;5668;52.012;8.724;2023-06-26T04:43:42;5.88;;;5.40;;
11222;SDS011;5668;52.012;8.724;2023-06-26T04:46:09;6.32;;;5.43;;
11222;SDS011;5668;52.012;8.724;2023-06-26T04:48:36;6.43;;;5.78;;
11222;SDS011;5668;52.012;8.724;2023-06-26T04:51:05;6.40;;;5.72;;
11222;SDS011;5668;52.012;8.724;2023-06-26T04:53:32;7.47;;;5.97;;
11222;SDS011;5668;52.012;8.724;2023-06-26T04:55:59;6.22;;;5.60;;
11222;SDS011;5668;52.012;8.724;2023-06-26T04:58:26;6.63;;;6.00;;
11222;SDS011;5668;52.012;8.724;2023-06-26T05:00:54;6.97;;;6.38;;
11222;SDS011;5668;52.012;8.724;2023-06-26T05:03:21;6.43;;;5.75;;
11222;SDS011;5668;52.012;8.724;2023-06-26T05:05:49;7.57;;;5.57;;
11222;SDS011;5668;52.012;8.724;2023-06-26T05:08:18;6.20;;;5.60;;
11222;SDS011;5668;52.012;8.724;2023-06-26T05:10:47;7.20;;;5.90;;
11222;SDS011;5668;52.012;8.724;2023-06-26T05:13:15;6.63;;;5.93;;
11222;SDS011;5668;52.012;8.724;2023-06-26T05:15:44;6.03;;;5.43;;
11222;SDS011;5668;52.012;8.724;2023-06-26T05:18:11;7.35;;;6.15;;
11222;SDS011;5668;52.012;8.724;2023-06-26T05:20:39;6.82;;;6.22;;
11222;SDS011;5668;52.012;8.724;2023-06-26T05:23:07;6.75;;;6.22;;
11222;SDS011;5668;52.012;8.724;2023-06-26T05:25:38;6.53;;;5.82;;
11222;SDS011;5668;52.012;8.724;2023-06-26T05:28:06;6.82;;;6.15;;
11222;SDS011;5668;52.012;8.724;2023-06-26T05:30:35;7.13;;;6.43;;
11222;SDS011;5668;52.012;8.724;2023-06-26T05:33:03;6.63;;;6.00;;
11222;SDS011;5668;52.012;8.724;2023-06-26T05:35:31;6.18;;;5.55;;
11222;SDS011;5668;52.012;8.724;2023-06-26T05:38:00;6.80;;;6.07;;
11222;SDS011;5668;52.012;8.724;2023-06-26T05:40:27;6.30;;;5.72;;
11222;SDS011;5668;52.012;8.724;2023-06-26T05:42:56;6.57;;;5.95;;
11222;SDS011;5668;52.012;8.724;2023-06-26T05:45:24;6.90;;;5.93;;
11222;SDS011;5668;52.012;8.724;2023-06-26T05:47:51;9.43;;;5.97;;
11222;SDS011;5668;52.012;8.724;2023-06-26T05:50:19;6.15;;;5.63;;
11222;SDS011;5668;52.012;8.724;2023-06-26T05:52:47;5.85;;;5.35;;
11222;SDS011;5668;52.012;8.724;2023-06-26T05:55:15;5.78;;;5.30;;
11222;SDS011;5668;52.012;8.724;2023-06-26T05:57:42;6.03;;;5.53;;
11222;SDS011;5668;52.012;8.724;2023-06-26T06:00:13;6.47;;;5.47;;
11222;SDS011;5668;52.012;8.724;2023-06-26T06:02:41;5.53;;;5.03;;
11222;SDS011;5668;52.012;8.724;2023-06-26T06:05:09;5.93;;;5.43;;
11222;SDS011;5668;52.012;8.724;2023-06-26T06:07:37;6.30;;;5.70;;
11222;SDS011;5668;52.012;8.724;2023-06-26T06:10:04;5.78;;;5.20;;
11222;SDS011;5668;52.012;8.724;2023-06-26T06:12:33;5.78;;;5.28;;
11222;SDS011;5668;52.012;8.724;2023-06-26T06:15:00;8.20;;;5.25;;
11222;SDS011;5668;52.012;8.724;2023-06-26T06:17:29;5.95;;;5.07;;
11222;SDS011;5668;52.012;8.724;2023-06-26T06:19:56;6.40;;;5.80;;
11222;SDS011;5668;52.012;8.724;2023-06-26T06:22:23;5.82;;;5.32;;
11222;SDS011;5668;52.012;8.724;2023-06-26T06:24:50;6.05;;;5.55;;
11222;SDS011;5668;52.012;8.724;2023-06-26T06:27:17;8.10;;;6.07;;
11222;SDS011;5668;52.012;8.724;2023-06-26T06:29:45;6.80;;;5.78;;
11222;SDS011;5668;52.012;8.724;2023-06-26T06:32:12;6.68;;;5.43;;
11222;SDS011;5668;52.012;8.724;2023-06-26T06:34:40;6.50;;;5.80;;
11222;SDS011;5668;52.012;8.724;2023-06-26T06:37:08;7.05;;;6.35;;
11222;SDS011;5668;52.012;8.724;2023-06-26T06:39:35;7.40;;;5.60;;
11222;SDS011;5668;52.012;8.724;2023-06-26T06:42:02;6.95;;;6.30;;
11222;SDS011;5668;52.012;8.724;2023-06-26T06:44:30;6.50;;;5.90;;
11222;SDS011;5668;52.012;8.724;2023-06-26T06:46:57;6.80;;;5.80;;
11222;SDS011;5668;52.012;8.724;2023-06-26T06:49:24;6.47;;;5.85;;
11222;SDS011;5668;52.012;8.724;2023-06-26T06:51:53;6.32;;;5.78;;
11222;SDS011;5668;52.012;8.724;2023-06-26T06:54:20;6.50;;;5.90;;
11222;SDS011;5668;52.012;8.724;2023-06-26T06:56:47;6.95;;;6.25;;
11222;SDS011;5668;52.012;8.724;2023-06-26T06:59:14;7.35;;;6.53;;
11222;SDS011;5668;52.012;8.724;2023-06-26T07:01:42;7.43;;;6.72;;
11222;SDS011;5668;52.012;8.724;2023-06-26T07:04:09;7.88;;;6.65;;
11222;SDS011;5668;52.012;8.724;2023-06-26T07:06:36;7.43;;;5.93;;
11222;SDS011;5668;52.012;8.724;2023-06-26T07:09:05;7.00;;;5.90;;
11222;SDS011;5668;52.012;8.724;2023-06-26T07:11:32;7.20;;;6.60;;
11222;SDS011;5668;52.012;8.724;2023-06-26T07:13:59;6.40;;;5.80;;
11222;SDS011;5668;52.012;8.724;2023-06-26T07:16:26;6.47;;;5.88;;
11222;SDS011;5668;52.012;8.724;2023-06-26T07:18:53;6.43;;;5.35;;
11222;SDS011;5668;52.012;8.724;2023-06-26T07:21:20;6.53;;;5.90;;
11222;SDS011;5668;52.012;8.724;2023-06-26T07:23:48;6.15;;;5.65;;
11222;SDS011;5668;52.012;8.724;2023-06-26T07:26:16;6.18;;;5.68;;
11222;SDS011;5668;52.012;8.724;2023-06-26T07:28:44;6.15;;;5.65;;
11222;SDS011;5668;52.012;8.724;2023-06-26T07:31:11;7.35;;;6.35;;
11222;SDS011;5668;52.012;8.724;2023-06-26T07:33:38;7.13;;;6.05;;
11222;SDS011;5668;52.012;8.724;2023-06-26T07:36:05;7.55;;;6.38;;
11222;SDS011;5668;52.012;8.724;2023-06-26T07:38:32;6.72;;;5.95;;
11222;SDS011;5668;52.012;8.724;2023-06-26T07:41:00;6.95;;;6.25;;
11222;SDS011;5668;52.012;8.724;2023-06-26T07:43:28;7.40;;;6.18;;
11222;SDS011;5668;52.012;8.724;2023-06-26T07:45:56;9.57;;;6.80;;
11222;SDS011;5668;52.012;8.724;2023-06-26T07:48:23;7.38;;;6.13;;
11222;SDS011;5668;52.012;8.724;2023-06-26T07:50:51;6.93;;;6.22;;
11222;SDS011;5668;52.012;8.724;2023-06-26T07:53:18;6.72;;;5.70;;
11222;SDS011;5668;52.012;8.724;2023-06-26T07:55:46;6.65;;;5.97;;
11222;SDS011;5668;52.012;8.724;2023-06-26T07:58:13;7.07;;;6.47;;
11222;SDS011;5668;52.012;8.724;2023-06-26T08:00:41;6.38;;;5.78;;
11222;SDS011;5668;52.012;8.724;2023-06-26T08:03:09;6.43;;;5.78;;
11222;SDS011;5668;52.012;8.724;2023-06-26T08:05:36;6.20;;;5.60;;
11222;SDS011;5668;52.012;8.724;2023-06-26T08:08:03;8.60;;;5.85;;
11222;SDS011;5668;52.012;8.724;2023-06-26T08:10:31;6.38;;;5.70;;
11222;SDS011;5668;52.012;8.724;2023-06-26T08:12:59;6.55;;;5.97;;
11222;SDS011;5668;52.012;8.724;2023-06-26T08:15:26;8.07;;;6.20;;
11222;SDS011;5668;52.012;8.724;2023-06-26T08:17:55;7.00;;;5.80;;
11222;SDS011;5668;52.012;8.724;2023-06-26T08:20:22;6.20;;;5.70;;
11222;SDS011;5668;52.012;8.724;2023-06-26T08:22:49;6.32;;;5.72;;
11222;SDS011;5668;52.012;8.724;2023-06-26T08:25:17;8.93;;;6.15;;
11222;SDS011;5668;52.012;8.724;2023-06-26T08:27:45;6.43;;;5.60;;
11222;SDS011;5668;52.012;8.724;2023-06-26T08:30:13;6.80;;;5.65;;
11222;SDS011;5668;52.012;8.724;2023-06-26T08:32:40;8.35;;;6.32;;
11222;SDS011;5668;52.012;8.724;2023-06-26T08:35:08;7.30;;;6.45;;
11222;SDS011;5668;52.012;8.724;2023-06-26T08:37:36;8.02;;;6.50;;
11222;SDS011;5668;52.012;8.724;2023-06-26T08:40:03;9.55;;;7.00;;
11222;SDS011;5668;52.012;8.724;2023-06-26T08:42:33;9.23;;;6.85;;
11222;SDS011;5668;52.012;8.724;2023-06-26T08:45:00;8.13;;;6.28;;
11222;SDS011;5668;52.012;8.724;2023-06-26T08:47:28;6.88;;;6.18;;
11222;SDS011;5668;52.012;8.724;2023-06-26T08:50:01;9.15;;;6.10;;
11222;SDS011;5668;52.012;8.724;2023-06-26T08:52:39;8.10;;;5.97;;
11222;SDS011;5668;52.012;8.724;2023-06-26T08:55:10;7.32;;;5.70;;
11222;SDS011;5668;52.012;8.724;2023-06-26T08:57:41;6.50;;;5.50;;
11222;SDS011;5668;52.012;8.724;2023-06-26T09:00:09;7.95;;;5.30;;
11222;SDS011;5668;52.012;8.724;2023-06-26T09:02:39;8.20;;;5.68;;
11222;SDS011;5668;52.012;8.724;2023-06-26T09:05:08;7.15;;;5.85;;
11222;SDS011;5668;52.012;8.724;2023-06-26T09:07:35;6.07;;;5.38;;
11222;SDS011;5668;52.012;8.724;2023-06-26T09:10:04;8.75;;;6.60;;
11222;SDS011;5668;52.012;8.724;2023-06-26T09:12:34;7.38;;;5.90;;
11222;SDS011;5668;52.012;8.724;2023-06-26T09:15:02;8.65;;;6.28;;
11222;SDS011;5668;52.012;8.724;2023-06-26T09:17:33;7.65;;;5.85;;
11222;SDS011;5668;52.012;8.724;2023-06-26T09:20:05;7.20;;;6.03;;
11222;SDS011;5668;52.012;8.724;2023-06-26T09:22:36;8.27;;;6.07;;
11222;SDS011;5668;52.012;8.724;2023-06-26T09:25:07;7.03;;;5.32;;
11222;SDS011;5668;52.012;8.724;2023-06-26T09:27:35;8.27;;;6.25;;
11222;SDS011;5668;52.012;8.724;2023-06-26T09:30:02;7.55;;;6.13;;
11222;SDS011;5668;52.012;8.724;2023-06-26T09:32:33;7.97;;;6.38;;
11222;SDS011;5668;52.012;8.724;2023-06-26T09:35:01;7.85;;;6.03;;
11222;SDS011;5668;52.012;8.724;2023-06-26T09:37:29;7.97;;;6.57;;
11222;SDS011;5668;52.012;8.724;2023-06-26T09:39:58;7.95;;;6.07;;
11222;SDS011;5668;52.012;8.724;2023-06-26T09:42:26;8.18;;;6.07;;
11222;SDS011;5668;52.012;8.724;2023-06-26T09:44:55;7.50;;;6.13;;
11222;SDS011;5668;52.012;8.724;2023-06-26T09:47:22;7.82;;;5.40;;
11222;SDS011;5668;52.012;8.724;2023-06-26T09:49:49;7.10;;;6.07;;
11222;SDS011;5668;52.012;8.724;2023-06-26T09:52:17;9.43;;;6.35;;
11222;SDS011;5668;52.012;8.724;2023-06-26T09:54:45;7.30;;;5.57;;
11222;SDS011;5668;52.012;8.724;2023-06-26T09:57:15;7.30;;;5.57;;
11222;SDS011;5668;52.012;8.724;2023-06-26T09:59:43;7.47;;;5.95;;
11222;SDS011;5668;52.012;8.724;2023-06-26T10:02:11;8.55;;;5.53;;
11222;SDS011;5668;52.012;8.724;2023-06-26T10:04:38;8.60;;;5.50;;
11222;SDS011;5668;52.012;8.724;2023-06-26T10:07:06;6.70;;;5.28;;
11222;SDS011;5668;52.012;8.724;2023-06-26T10:09:37;6.22;;;5.28;;
11222;SDS011;5668;52.012;8.724;2023-06-26T10:12:09;8.60;;;6.07;;
11222;SDS011;5668;52.012;8.724;2023-06-26T10:14:44;7.35;;;5.10;;
11222;SDS011;5668;52.012;8.724;2023-06-26T10:17:15;7.45;;;5.15;;
11222;SDS011;5668;52.012;8.724;2023-06-26T10:19:45;8.45;;;5.00;;
11222;SDS011;5668;52.012;8.724;2023-06-26T10:22:16;6.47;;;5.00;;
11222;SDS011;5668;52.012;8.724;2023-06-26T10:24:47;11.57;;;5.40;;
11222;SDS011;5668;52.012;8.724;2023-06-26T10:27:16;8.65;;;5.28;;
11222;SDS011;5668;52.012;8.724;2023-06-26T10:29:46;6.72;;;5.43;;
11222;SDS011;5668;52.012;8.724;2023-06-26T10:32:19;8.95;;;5.63;;
11222;SDS011;5668;52.012;8.724;2023-06-26T10:34:49;6.40;;;5.45;;
11222;SDS011;5668;52.012;8.724;2023-06-26T10:37:17;9.20;;;5.28;;
11222;SDS011;5668;52.012;8.724;2023-06-26T10:39:48;9.23;;;5.20;;
11222;SDS011;5668;52.012;8.724;2023-06-26T10:42:16;9.90;;;5.78;;
11222;SDS011;5668;52.012;8.724;2023-06-26T10:44:46;7.38;;;4.95;;
11222;SDS011;5668;52.012;8.724;2023-06-26T10:47:28;8.35;;;5.10;;
11222;SDS011;5668;52.012;8.724;2023-06-26T10:49:56;7.35;;;5.35;;
11222;SDS011;5668;52.012;8.724;2023-06-26T10:52:42;10.02;;;5.50;;
11222;SDS011;5668;52.012;8.724;2023-06-26T10:55:09;7.60;;;4.43;;
11222;SDS011;5668;52.012;8.724;2023-06-26T10:57:37;7.90;;;5.20;;
11222;SDS011;5668;52.012;8.724;2023-06-26T11:00:13;5.70;;;4.53;;
11222;SDS011;5668;52.012;8.724;2023-06-26T11:02:48;7.03;;;4.60;;
11222;SDS011;5668;52.012;8.724;2023-06-26T11:05:25;7.32;;;4.80;;
11222;SDS011;5668;52.012;8.724;2023-06-26T11:08:03;10.55;;;5.20;;
11222;SDS011;5668;52.012;8.724;2023-06-26T11:10:47;6.47;;;5.00;;
11222;SDS011;5668;52.012;8.724;2023-06-26T11:13:16;6.00;;;4.30;;
11222;SDS011;5668;52.012;8.724;2023-06-26T11:15:46;9.77;;;4.20;;
11222;SDS011;5668;52.012;8.724;2023-06-26T11:18:15;5.40;;;4.40;;
11222;SDS011;5668;52.012;8.724;2023-06-26T11:20:43;6.60;;;4.47;;
11222;SDS011;5668;52.012;8.724;2023-06-26T11:23:10;7.13;;;4.38;;
11222;SDS011;5668;52.012;8.724;2023-06-26T11:25:38;7.38;;;4.45;;
11222;SDS011;5668;52.012;8.724;2023-06-26T11:28:05;8.68;;;4.55;;
11222;SDS011;5668;52.012;8.724;2023-06-26T11:30:36;6.80;;;4.35;;
11222;SDS011;5668;52.012;8.724;2023-06-26T11:33:06;5.75;;;3.72;;
11222;SDS011;5668;52.012;8.724;2023-06-26T11:35:36;4.85;;;3.42;;
11222;SDS011;5668;52.012;8.724;2023-06-26T11:38:03;6.82;;;3.90;;
11222;SDS011;5668;52.012;8.724;2023-06-26T11:40:31;4.38;;;3.30;;
11222;SDS011;5668;52.012;8.724;2023-06-26T11:43:00;3.42;;;2.95;;
11222;SDS011;5668;52.012;8.724;2023-06-26T11:45:28;4.65;;;3.22;;
11222;SDS011;5668;52.012;8.724;2023-06-26T11:47:57;4.65;;;3.00;;
11222;SDS011;5668;52.012;8.724;2023-06-26T11:50:26;4.20;;;3.05;;
11222;SDS011;5668;52.012;8.724;2023-06-26T11:52:54;6.22;;;2.75;;
11222;SDS011;5668;52.012;8.724;2023-06-26T11:55:22;3.08;;;2.60;;
11222;SDS011;5668;52.012;8.724;2023-06-26T11:57:52;3.00;;;2.65;;
11222;SDS011;5668;52.012;8.724;2023-06-26T12:00:20;7.13;;;2.85;;
11222;SDS011;5668;52.012;8.724;2023-06-26T12:02:48;4.57;;;2.80;;
11222;SDS011;5668;52.012;8.724;2023-06-26T12:05:17;3.20;;;2.58;;
11222;SDS011;5668;52.012;8.724;2023-06-26T12:07:46;4.68;;;2.70;;
11222;SDS011;5668;52.012;8.724;2023-06-26T12:10:15;3.22;;;2.50;;
11222;SDS011;5668;52.012;8.724;2023-06-26T12:12:43;4.95;;;2.60;;
11222;SDS011;5668;52.012;8.724;2023-06-26T12:15:13;5.00;;;2.35;;
11222;SDS011;5668;52.012;8.724;2023-06-26T12:17:42;3.63;;;2.50;;
11222;SDS011;5668;52.012;8.724;2023-06-26T12:20:17;4.13;;;2.47;;
11222;SDS011;5668;52.012;8.724;2023-06-26T12:22:47;4.45;;;2.35;;
11222;SDS011;5668;52.012;8.724;2023-06-26T12:25:14;4.63;;;2.65;;
11222;SDS011;5668;52.012;8.724;2023-06-26T12:27:47;2.95;;;2.50;;
11222;SDS011;5668;52.012;8.724;2023-06-26T12:30:15;2.38;;;2.17;;
11222;SDS011;5668;52.012;8.724;2023-06-26T12:32:44;3.88;;;2.60;;
11222;SDS011;5668;52.012;8.724;2023-06-26T12:35:12;3.50;;;2.45;;
11222;SDS011;5668;52.012;8.724;2023-06-26T12:37:41;3.95;;;2.38;;
11222;SDS011;5668;52.012;8.724;2023-06-26T12:40:19;5.43;;;2.38;;
11222;SDS011;5668;52.012;8.724;2023-06-26T12:42:48;3.85;;;2.10;;
11222;SDS011;5668;52.012;8.724;2023-06-26T12:45:15;3.65;;;2.17;;
11222;SDS011;5668;52.012;8.724;2023-06-26T12:47:42;3.00;;;2.25;;
11222;SDS011;5668;52.012;8.724;2023-06-26T12:50:11;2.53;;;2.08;;
11222;SDS011;5668;52.012;8.724;2023-06-26T12:52:39;2.85;;;2.30;;
11222;SDS011;5668;52.012;8.724;2023-06-26T12:55:07;5.03;;;2.50;;
11222;SDS011;5668;52.012;8.724;2023-06-26T12:57:36;3.22;;;2.75;;
11222;SDS011;5668;52.012;8.724;2023-06-26T13:00:04;3.03;;;2.15;;
11222;SDS011;5668;52.012;8.724;2023-06-26T13:02:32;3.03;;;2.10;;
11222;SDS011;5668;52.012;8.724;2023-06-26T13:04:59;2.35;;;2.00;;
11222;SDS011;5668;52.012;8.724;2023-06-26T13:07:26;4.82;;;2.20;;
11222;SDS011;5668;52.012;8.724;2023-06-26T13:09:55;4.28;;;2.40;;
11222;SDS011;5668;52.012;8.724;2023-06-26T13:12:22;4.32;;;2.30;;
11222;SDS011;5668;52.012;8.724;2023-06-26T13:14:50;2.22;;;2.00;;
11222;SDS011;5668;52.012;8.724;2023-06-26T13:17:18;3.45;;;2.33;;
11222;SDS011;5668;52.012;8.724;2023-06-26T13:19:45;4.90;;;2.65;;
11222;SDS011;5668;52.012;8.724;2023-06-26T13:22:12;3.22;;;2.30;;
11222;SDS011;5668;52.012;8.724;2023-06-26T13:24:39;3.28;;;2.58;;
11222;SDS011;5668;52.012;8.724;2023-06-26T13:27:07;3.90;;;2.60;;
11222;SDS011;5668;52.012;8.724;2023-06-26T13:29:34;2.85;;;2.28;;
11222;SDS011;5668;52.012;8.724;2023-06-26T13:32:03;3.17;;;2.20;;
11222;SDS011;5668;52.012;8.724;2023-06-26T13:34:31;5.40;;;2.25;;
11222;SDS011;5668;52.012;8.724;2023-06-26T13:36:59;4.13;;;2.47;;
11222;SDS011;5668;52.012;8.724;2023-06-26T13:39:26;2.30;;;2.10;;
11222;SDS011;5668;52.012;8.724;2023-06-26T13:41:53;5.22;;;2.40;;
11222;SDS011;5668;52.012;8.724;2023-06-26T13:44:20;4.53;;;2.28;;
11222;SDS011;5668;52.012;8.724;2023-06-26T13:46:47;3.78;;;2.15;;
11222;SDS011;5668;52.012;8.724;2023-06-26T13:49:16;3.28;;;2.67;;
11222;SDS011;5668;52.012;8.724;2023-06-26T13:51:43;4.18;;;2.10;;
11222;SDS011;5668;52.012;8.724;2023-06-26T13:54:12;3.17;;;2.10;;
11222;SDS011;5668;52.012;8.724;2023-06-26T13:56:39;3.67;;;2.33;;
11222;SDS011;5668;52.012;8.724;2023-06-26T13:59:06;4.32;;;2.40;;
11222;SDS011;5668;52.012;8.724;2023-06-26T14:01:34;4.45;;;2.20;;
11222;SDS011;5668;52.012;8.724;2023-06-26T14:04:01;3.53;;;2.53;;
11222;SDS011;5668;52.012;8.724;2023-06-26T14:06:29;3.95;;;2.40;;
11222;SDS011;5668;52.012;8.724;2023-06-26T14:08:57;5.22;;;2.10;;
11222;SDS011;5668;52.012;8.724;2023-06-26T14:11:25;3.83;;;2.10;;
11222;SDS011;5668;52.012;8.724;2023-06-26T14:13:52;3.42;;;2.33;;
11222;SDS011;5668;52.012;8.724;2023-06-26T14:16:19;2.95;;;2.33;;
11222;SDS011;5668;52.012;8.724;2023-06-26T14:18:47;6.07;;;2.35;;
11222;SDS011;5668;52.012;8.724;2023-06-26T14:21:15;3.83;;;2.05;;
11222;SDS011;5668;52.012;8.724;2023-06-26T14:23:43;2.70;;;2.08;;
11222;SDS011;5668;52.012;8.724;2023-06-26T14:26:10;4.50;;;2.17;;
11222;SDS011;5668;52.012;8.724;2023-06-26T14:28:38;3.80;;;2.25;;
11222;SDS011;5668;52.012;8.724;2023-06-26T14:31:05;5.00;;;2.53;;
11222;SDS011;5668;52.012;8.724;2023-06-26T14:33:32;3.22;;;2.30;;
11222;SDS011;5668;52.012;8.724;2023-06-26T14:36:03;3.40;;;2.20;;
11222;SDS011;5668;52.012;8.724;2023-06-26T14:38:31;3.28;;;2.10;;
11222;SDS011;5668;52.012;8.724;2023-06-26T14:40:59;5.00;;;2.10;;
11222;SDS011;5668;52.012;8.724;2023-06-26T14:43:26;3.65;;;2.10;;
11222;SDS011;5668;52.012;8.724;2023-06-26T14:45:54;3.33;;;2.03;;
11222;SDS011;5668;52.012;8.724;2023-06-26T14:48:21;3.85;;;1.92;;
11222;SDS011;5668;52.012;8.724;2023-06-26T14:50:48;2.30;;;1.85;;
11222;SDS011;5668;52.012;8.724;2023-06-26T14:53:15;4.40;;;2.13;;
11222;SDS011;5668;52.012;8.724;2023-06-26T14:55:43;5.88;;;1.95;;
11222;SDS011;5668;52.012;8.724;2023-06-26T14:58:11;3.40;;;1.92;;
11222;SDS011;5668;52.012;8.724;2023-06-26T15:00:38;3.95;;;1.98;;
11222;SDS011;5668;52.012;8.724;2023-06-26T15:03:06;4.57;;;1.70;;
11222;SDS011;5668;52.012;8.724;2023-06-26T15:05:33;2.70;;;2.15;;
11222;SDS011;5668;52.012;8.724;2023-06-26T15:08:00;3.45;;;1.65;;
11222;SDS011;5668;52.012;8.724;2023-06-26T15:10:27;4.25;;;1.80;;